createdAt,value
2023-02-24T00:01:59.867Z,100457.50
2023-02-24T00:04:28.613Z,100453.78
2023-02-24T00:06:55.839Z,100446.81
2023-02-24T00:09:26.356Z,100455.69
2023-02-24T00:12:02.997Z,100446.75
2023-02-24T00:14:33.171Z,100438.19
2023-02-24T00:17:00.765Z,100436.59
2023-02-24T00:19:32.830Z,100438.63
2023-02-24T00:22:04.289Z,100439.31
2023-02-24T00:24:31.555Z,100430.41
2023-02-24T00:27:01.008Z,100437.16
2023-02-24T00:29:29.315Z,100438.19
2023-02-24T00:32:03.778Z,100432.78
2023-02-24T00:34:34.084Z,100428.63
2023-02-24T00:37:01.936Z,100426.94
2023-02-24T00:39:30.526Z,100421.63
2023-02-24T00:42:05.022Z,100421.78
2023-02-24T00:44:33.931Z,100418.34
2023-02-24T00:47:02.689Z,100417.66
2023-02-24T00:49:30.961Z,100432.56
2023-02-24T00:51:58.503Z,100430.25
2023-02-24T00:54:28.496Z,100428.97
2023-02-24T00:56:57.057Z,100428.88
2023-02-24T00:59:24.713Z,100421.03
2023-02-24T01:01:54.999Z,100422.94
2023-02-24T01:04:22.669Z,100427.81
2023-02-24T01:06:52.304Z,100424.91
2023-02-24T01:09:20.859Z,100425.19
2023-02-24T01:12:18.137Z,100421.72
2023-02-24T01:14:49.675Z,100422.34
2023-02-24T01:17:19.381Z,100426.81
2023-02-24T01:19:49.409Z,100421.81
2023-02-24T01:22:18.518Z,100424.75
2023-02-24T01:24:45.979Z,100420.38
2023-02-24T01:27:17.623Z,100424.59
2023-02-24T01:29:46.082Z,100419.56
2023-02-24T01:32:21.300Z,100423.19
2023-02-24T01:34:51.581Z,100423.34
2023-02-24T01:37:19.716Z,100413.28
2023-02-24T01:39:47.841Z,100411.09
2023-02-24T01:42:19.477Z,100410.00
2023-02-24T01:44:46.941Z,100405.50
2023-02-24T01:47:16.347Z,100406.47
2023-02-24T01:49:46.009Z,100406.53
2023-02-24T01:52:30.630Z,100401.50
2023-02-24T01:55:20.225Z,100405.25
2023-02-24T01:57:47.984Z,100402.69
2023-02-24T02:00:32.481Z,100407.00
2023-02-24T02:03:02.841Z,100386.81
2023-02-24T02:05:30.356Z,100388.44
2023-02-24T02:07:57.768Z,100390.44
2023-02-24T02:10:26.362Z,100384.66
2023-02-24T02:12:53.641Z,100384.72
2023-02-24T02:15:21.215Z,100389.81
2023-02-24T02:18:12.639Z,100384.72
2023-02-24T02:21:33.477Z,100387.34
2023-02-24T02:24:18.855Z,100379.78
2023-02-24T02:27:11.765Z,100376.38
2023-02-24T02:29:51.418Z,100374.41
2023-02-24T02:32:31.441Z,100369.34
2023-02-24T02:35:12.970Z,100378.75
2023-02-24T02:38:15.081Z,100373.66
2023-02-24T02:41:28.993Z,100382.63
2023-02-24T02:44:07.937Z,100376.81
2023-02-24T02:46:44.115Z,100377.63
2023-02-24T02:49:32.328Z,100386.97
2023-02-24T02:52:05.678Z,100383.53
2023-02-24T02:54:49.565Z,100377.28
2023-02-24T02:57:29.564Z,100371.38
2023-02-24T03:00:15.369Z,100367.13
2023-02-24T03:02:45.447Z,100365.34
2023-02-24T03:05:17.483Z,100368.78
2023-02-24T03:07:51.759Z,100357.44
2023-02-24T03:10:27.563Z,100367.13
2023-02-24T03:12:57.740Z,100362.81
2023-02-24T03:15:27.060Z,100361.28
2023-02-24T03:17:55.729Z,100353.00
2023-02-24T03:20:44.101Z,100358.03
2023-02-24T03:23:26.101Z,100346.03
2023-02-24T03:26:23.310Z,100352.81
2023-02-24T03:28:59.523Z,100351.91
2023-02-24T03:31:31.446Z,100350.13
2023-02-24T03:34:20.372Z,100340.66
2023-02-24T03:36:48.300Z,100338.84
2023-02-24T03:39:15.855Z,100340.56
2023-02-24T03:42:17.988Z,100341.41
2023-02-24T03:44:45.597Z,100328.50
2023-02-24T03:47:15.892Z,100319.75
2023-02-24T03:49:43.840Z,100320.06
2023-02-24T03:52:40.343Z,100321.81
2023-02-24T03:55:45.801Z,100312.13
2023-02-24T03:58:43.873Z,100316.31
2023-02-24T04:01:28.750Z,100320.66
2023-02-24T04:04:33.130Z,100309.28
2023-02-24T04:07:13.632Z,100304.81
2023-02-24T04:09:50.680Z,100302.28
2023-02-24T04:12:28.246Z,100300.59
2023-02-24T04:15:04.809Z,100306.06
2023-02-24T04:17:52.303Z,100297.25
2023-02-24T04:20:21.700Z,100297.41
2023-02-24T04:22:50.146Z,100297.31
2023-02-24T04:25:19.735Z,100292.91
2023-02-24T04:27:47.622Z,100289.44
2023-02-24T04:30:15.046Z,100286.78
2023-02-24T04:32:45.216Z,100279.22
2023-02-24T04:35:19.245Z,100273.91
2023-02-24T04:37:46.684Z,100281.72
2023-02-24T04:40:18.781Z,100273.84
2023-02-24T04:42:46.567Z,100270.34
2023-02-24T04:45:16.826Z,100264.31
2023-02-24T04:47:51.556Z,100258.41
2023-02-24T04:50:23.267Z,100260.28
2023-02-24T04:53:00.903Z,100257.56
2023-02-24T04:55:33.048Z,100252.47
2023-02-24T04:58:01.211Z,100250.59
2023-02-24T05:00:35.380Z,100249.81
2023-02-24T05:03:04.506Z,100250.63
2023-02-24T05:05:35.564Z,100255.75
2023-02-24T05:08:08.996Z,100248.22
2023-02-24T05:10:46.807Z,100238.47
2023-02-24T05:13:17.192Z,100245.38
2023-02-24T05:15:45.822Z,100235.91
2023-02-24T05:18:17.066Z,100235.22
2023-02-24T05:21:06.860Z,100236.13
2023-02-24T05:23:40.021Z,100231.63
2023-02-24T05:26:09.276Z,100235.00
2023-02-24T05:28:41.142Z,100227.28
2023-02-24T05:31:15.283Z,100224.59
2023-02-24T05:33:44.189Z,100221.13
2023-02-24T05:36:17.153Z,100219.59
2023-02-24T05:38:45.610Z,100211.88
2023-02-24T05:41:18.401Z,100214.38
2023-02-24T05:43:54.905Z,100202.09
2023-02-24T05:46:28.348Z,100206.63
2023-02-24T05:49:09.040Z,100202.41
2023-02-24T05:51:39.126Z,100194.53
2023-02-24T05:54:08.526Z,100192.63
2023-02-24T05:56:36.762Z,100193.75
2023-02-24T05:59:07.635Z,100190.13
2023-02-24T06:01:37.241Z,100192.84
2023-02-24T06:04:06.245Z,100191.03
2023-02-24T06:06:39.459Z,100183.97
2023-02-24T06:09:11.057Z,100187.34
2023-02-24T06:11:40.961Z,100183.00
2023-02-24T06:14:09.561Z,100185.66
2023-02-24T06:16:40.023Z,100178.69
2023-02-24T06:19:08.650Z,100176.84
2023-02-24T06:21:42.279Z,100171.78
2023-02-24T06:24:14.581Z,100171.66
2023-02-24T06:26:45.530Z,100166.63
2023-02-24T06:29:20.714Z,100166.78
2023-02-24T06:31:48.688Z,100164.94
2023-02-24T06:34:18.434Z,100164.00
2023-02-24T06:36:47.299Z,100163.09
2023-02-24T06:39:14.848Z,100158.53
2023-02-24T06:41:42.645Z,100157.72
2023-02-24T06:44:10.007Z,100155.78
2023-02-24T06:46:37.830Z,100154.19
2023-02-24T06:49:05.066Z,100149.00
2023-02-24T06:51:32.534Z,100138.41
2023-02-24T06:54:00.163Z,100138.56
2023-02-24T06:56:28.782Z,100131.59
2023-02-24T06:58:56.956Z,100131.31
2023-02-24T07:01:26.613Z,100128.03
2023-02-24T07:04:07.776Z,100128.13
2023-02-24T07:06:38.161Z,100123.84
2023-02-24T07:09:08.702Z,100128.69
2023-02-24T07:11:37.032Z,100121.84
2023-02-24T07:14:05.872Z,100119.22
2023-02-24T07:16:34.726Z,100126.19
2023-02-24T07:19:04.898Z,100114.94
2023-02-24T07:21:39.650Z,100119.97
2023-02-24T07:24:08.429Z,100112.25
2023-02-24T07:26:35.858Z,100107.88
2023-02-24T07:29:06.664Z,100111.22
2023-02-24T07:31:34.612Z,100102.56
2023-02-24T07:34:02.154Z,100102.38
2023-02-24T07:36:30.566Z,100091.09
2023-02-24T07:38:59.042Z,100089.34
2023-02-24T07:41:28.732Z,100089.31
2023-02-24T07:43:59.048Z,100075.38
2023-02-24T07:46:28.044Z,100076.25
2023-02-24T07:48:56.164Z,100062.25
2023-02-24T07:51:25.491Z,100061.53
2023-02-24T07:53:56.977Z,100057.97
2023-02-24T07:56:27.118Z,100056.81
2023-02-24T07:58:59.231Z,100061.09
2023-02-24T08:01:28.664Z,100045.56
2023-02-24T08:04:01.428Z,100041.22
2023-02-24T08:06:46.149Z,100038.09
2023-02-24T08:09:18.273Z,100033.66
2023-02-24T08:11:52.261Z,100023.22
2023-02-24T08:14:34.809Z,100028.28
2023-02-24T08:17:05.684Z,100020.19
2023-02-24T08:19:39.540Z,100011.59
2023-02-24T08:22:20.345Z,100006.38
2023-02-24T08:25:00.022Z,100002.09
2023-02-24T08:27:30.437Z,99997.63
2023-02-24T08:29:58.689Z,99988.91
2023-02-24T08:32:26.909Z,99994.75
2023-02-24T08:34:56.744Z,99981.78
2023-02-24T08:37:26.071Z,99973.19
2023-02-24T08:39:56.528Z,99977.81
2023-02-24T08:42:31.117Z,99970.72
2023-02-24T08:44:58.506Z,99977.41
2023-02-24T08:47:31.252Z,99974.56
2023-02-24T08:50:00.247Z,99968.66
2023-02-24T08:52:29.167Z,99959.06
2023-02-24T08:55:01.698Z,99953.75
2023-02-24T08:57:28.911Z,99953.31
2023-02-24T08:59:59.896Z,99949.41
2023-02-24T09:02:29.254Z,99935.00
2023-02-24T09:05:05.517Z,99943.13
2023-02-24T09:07:37.364Z,99936.44
2023-02-24T09:10:11.523Z,99936.34
2023-02-24T09:12:41.966Z,99923.91
2023-02-24T09:15:15.682Z,99927.47
2023-02-24T09:17:45.672Z,99922.38
2023-02-24T09:20:39.249Z,99915.38
2023-02-24T09:23:09.703Z,99915.63
2023-02-24T09:25:43.648Z,99913.91
2023-02-24T09:28:25.939Z,99904.50
2023-02-24T09:30:59.054Z,99904.41
2023-02-24T09:33:26.349Z,99893.81
2023-02-24T09:36:03.402Z,99898.38
2023-02-24T09:38:57.721Z,99892.81
2023-02-24T09:41:33.329Z,99884.63
2023-02-24T09:44:18.350Z,99885.38
2023-02-24T09:47:10.574Z,99869.53
2023-02-24T09:49:56.389Z,99871.22
2023-02-24T09:52:39.788Z,99860.75
2023-02-24T09:55:35.967Z,99859.63
2023-02-24T09:58:47.639Z,99848.38
2023-02-24T10:01:33.483Z,99858.56
2023-02-24T10:04:21.412Z,99854.81
2023-02-24T10:06:51.193Z,99846.06
2023-02-24T10:09:39.599Z,99851.59
2023-02-24T10:12:18.137Z,99834.81
2023-02-24T10:15:18.860Z,99841.84
2023-02-24T10:17:55.476Z,99834.97
2023-02-24T10:20:31.169Z,99821.81
2023-02-24T10:23:11.702Z,99830.72
2023-02-24T10:25:53.697Z,99835.28
2023-02-24T10:28:37.970Z,99819.50
2023-02-24T10:31:46.345Z,99818.78
2023-02-24T10:34:20.812Z,99813.72
2023-02-24T10:36:50.436Z,99815.25
2023-02-24T10:39:26.206Z,99808.38
2023-02-24T10:42:17.577Z,99799.81
2023-02-24T10:45:01.477Z,99788.81
2023-02-24T10:47:31.185Z,99797.13
2023-02-24T10:50:01.118Z,99805.06
2023-02-24T10:52:51.247Z,99797.25
2023-02-24T10:55:43.086Z,99789.38
2023-02-24T10:58:56.318Z,99786.97
2023-02-24T11:01:40.946Z,99778.66
2023-02-24T11:04:43.636Z,99786.56
2023-02-24T11:07:25.245Z,99782.34
2023-02-24T11:10:13.947Z,99778.16
2023-02-24T11:13:10.274Z,99773.41
2023-02-24T11:16:05.485Z,99777.22
2023-02-24T11:18:33.605Z,99759.69
2023-02-24T11:21:04.123Z,99761.75
2023-02-24T11:23:45.877Z,99758.44
2023-02-24T11:26:22.616Z,99740.22
2023-02-24T11:29:13.196Z,99749.19
2023-02-24T11:32:02.368Z,99731.97
2023-02-24T11:34:52.278Z,99741.78
2023-02-24T11:37:41.861Z,99731.94
2023-02-24T11:40:23.303Z,99719.09
2023-02-24T11:43:21.034Z,99716.41
2023-02-24T11:46:34.405Z,99700.84
2023-02-24T11:49:04.150Z,99713.09
2023-02-24T11:51:34.471Z,99700.75
2023-02-24T11:54:11.383Z,99694.53
2023-02-24T11:56:53.433Z,99683.28
2023-02-24T11:59:23.292Z,99679.88
2023-02-24T12:02:10.390Z,99674.94
2023-02-24T12:04:53.810Z,99663.06
2023-02-24T12:07:48.636Z,99654.63
2023-02-24T12:10:24.242Z,99649.50
2023-02-24T12:13:18.385Z,99640.88
2023-02-24T12:16:03.246Z,99636.13
2023-02-24T12:18:34.174Z,99634.97
2023-02-24T12:21:10.332Z,99628.00
2023-02-24T12:23:45.540Z,99615.56
2023-02-24T12:26:42.750Z,99615.38
2023-02-24T12:29:48.610Z,99623.63
2023-02-24T12:32:36.259Z,99609.94
2023-02-24T12:35:25.859Z,99601.09
2023-02-24T12:38:19.117Z,99599.53
2023-02-24T12:41:18.610Z,99592.63
2023-02-24T12:43:53.997Z,99591.72
2023-02-24T12:46:29.420Z,99581.44
2023-02-24T12:49:10.414Z,99578.81
2023-02-24T12:51:56.957Z,99578.94
2023-02-24T12:54:38.749Z,99575.53
2023-02-24T12:57:32.225Z,99565.38
2023-02-24T13:00:05.730Z,99554.06
2023-02-24T13:02:50.103Z,99554.13
2023-02-24T13:05:23.534Z,99550.50
2023-02-24T13:08:16.723Z,99542.84
2023-02-24T13:10:45.754Z,99532.63
2023-02-24T13:13:33.740Z,99529.41
2023-02-24T13:16:01.411Z,99521.75
2023-02-24T13:18:34.149Z,99512.28
2023-02-24T13:21:08.182Z,99515.72
2023-02-24T13:23:36.778Z,99497.41
2023-02-24T13:26:04.046Z,99494.72
2023-02-24T13:28:35.918Z,99501.88
2023-02-24T13:31:06.476Z,99490.47
2023-02-24T13:33:41.905Z,99477.34
2023-02-24T13:36:22.091Z,99481.22
2023-02-24T13:39:07.035Z,99482.38
2023-02-24T13:41:38.634Z,99465.81
2023-02-24T13:44:27.032Z,99466.75
2023-02-24T13:47:34.271Z,99466.94
2023-02-24T13:50:26.027Z,99471.88
2023-02-24T13:53:23.616Z,99461.81
2023-02-24T13:56:49.499Z,99448.88
2023-02-24T13:59:33.601Z,99453.22
2023-02-24T14:02:03.430Z,99449.66
2023-02-24T14:04:33.191Z,99454.16
2023-02-24T14:07:03.837Z,99441.00
2023-02-24T14:09:38.060Z,99431.31
2023-02-24T14:12:25.936Z,99428.88
2023-02-24T14:14:53.579Z,99428.88
2023-02-24T14:17:42.020Z,99424.44
2023-02-24T14:20:13.127Z,99418.38
2023-02-24T14:22:45.566Z,99416.94
2023-02-24T14:25:13.420Z,99417.63
2023-02-24T14:27:42.410Z,99410.66
2023-02-24T14:30:30.780Z,99409.94
2023-02-24T14:32:58.544Z,99398.47
2023-02-24T14:35:39.432Z,99400.16
2023-02-24T14:38:07.199Z,99397.56
2023-02-24T14:40:34.432Z,99401.94
2023-02-24T14:43:03.662Z,99388.84
2023-02-24T14:45:30.973Z,99392.28
2023-02-24T14:47:58.214Z,99392.34
2023-02-24T14:50:30.653Z,99380.22
2023-02-24T14:53:07.423Z,99386.28
2023-02-24T14:55:41.171Z,99381.25
2023-02-24T14:58:25.505Z,99378.69
2023-02-24T15:01:30.578Z,99380.81
2023-02-24T15:04:00.298Z,99371.38
2023-02-24T15:06:30.461Z,99363.72
2023-02-24T15:09:06.097Z,99362.69
2023-02-24T15:11:33.751Z,99354.84
2023-02-24T15:14:04.920Z,99348.78
2023-02-24T15:16:42.199Z,99347.84
2023-02-24T15:19:32.998Z,99338.66
2023-02-24T15:22:00.639Z,99331.69
2023-02-24T15:24:33.669Z,99331.59
2023-02-24T15:27:21.915Z,99328.16
2023-02-24T15:30:07.963Z,99323.78
2023-02-24T15:32:39.422Z,99324.78
2023-02-24T15:35:07.956Z,99316.13
2023-02-24T15:37:42.728Z,99310.16
2023-02-24T15:40:28.919Z,99295.34
2023-02-24T15:42:57.664Z,99291.75
2023-02-24T15:45:36.362Z,99293.03
2023-02-24T15:48:17.756Z,99291.94
2023-02-24T15:50:45.224Z,99288.44
2023-02-24T15:53:13.033Z,99277.97
2023-02-24T15:55:43.786Z,99277.22
2023-02-24T15:58:18.544Z,99277.28
2023-02-24T16:00:46.222Z,99269.41
2023-02-24T16:03:13.614Z,99270.94
2023-02-24T16:05:46.205Z,99263.69
2023-02-24T16:08:18.812Z,99266.34
2023-02-24T16:10:46.348Z,99260.44
2023-02-24T16:13:20.800Z,99254.34
2023-02-24T16:15:48.358Z,99249.91
2023-02-24T16:18:22.179Z,99237.94
2023-02-24T16:20:54.769Z,99246.63
2023-02-24T16:23:23.627Z,99245.53
2023-02-24T16:26:00.808Z,99243.28
2023-02-24T16:28:28.181Z,99241.63
2023-02-24T16:30:55.832Z,99242.38
2023-02-24T16:33:23.789Z,99249.25
2023-02-24T16:35:54.927Z,99237.16
2023-02-24T16:38:26.542Z,99243.13
2023-02-24T16:40:54.752Z,99229.00
2023-02-24T16:43:21.986Z,99227.41
2023-02-24T16:46:02.349Z,99236.97
2023-02-24T16:48:34.721Z,99223.06
2023-02-24T16:51:03.767Z,99215.34
2023-02-24T16:53:31.183Z,99222.25
2023-02-24T16:55:58.461Z,99219.63
2023-02-24T16:58:26.116Z,99225.75
2023-02-24T17:00:57.280Z,99218.66
2023-02-24T17:03:27.018Z,99204.94
2023-02-24T17:05:54.599Z,99202.19
2023-02-24T17:08:22.158Z,99208.16
2023-02-24T17:10:49.785Z,99207.41
2023-02-24T17:13:19.113Z,99207.41
2023-02-24T17:15:46.368Z,99209.00
2023-02-24T17:18:13.894Z,99197.59
2023-02-24T17:20:42.457Z,99209.84
2023-02-24T17:23:11.538Z,99194.13
2023-02-24T17:25:38.985Z,99198.72
2023-02-24T17:28:06.556Z,99188.19
2023-02-24T17:30:39.438Z,99186.50
2023-02-24T17:33:06.783Z,99183.63
2023-02-24T17:35:34.180Z,99179.25
2023-02-24T17:38:01.743Z,99179.97
2023-02-24T17:40:29.254Z,99186.66
2023-02-24T17:42:56.531Z,99175.66
2023-02-24T17:45:23.786Z,99172.94
2023-02-24T17:47:52.678Z,99172.16
2023-02-24T17:50:19.997Z,99162.81
2023-02-24T17:52:47.675Z,99166.16
2023-02-24T17:55:14.903Z,99161.84
2023-02-24T17:57:42.223Z,99151.44
2023-02-24T18:00:10.788Z,99148.84
2023-02-24T18:02:38.608Z,99148.75
2023-02-24T18:05:06.192Z,99144.09
2023-02-24T18:07:33.384Z,99144.81
2023-02-24T18:10:00.655Z,99147.41
2023-02-24T18:12:28.183Z,99138.06
2023-02-24T18:15:07.428Z,99133.69
2023-02-24T18:17:36.594Z,99129.19
2023-02-24T18:20:05.360Z,99126.91
2023-02-24T18:22:32.625Z,99125.00
2023-02-24T18:25:01.214Z,99122.03
2023-02-24T18:27:28.544Z,99121.28
2023-02-24T18:29:56.014Z,99114.34
2023-02-24T18:32:23.535Z,99110.97
2023-02-24T18:34:50.970Z,99107.44
2023-02-24T18:37:18.293Z,99106.69
2023-02-24T18:39:45.542Z,99106.41
2023-02-24T18:42:13.058Z,99097.09
2023-02-24T18:44:40.388Z,99095.97
2023-02-24T18:47:09.825Z,99096.13
2023-02-24T18:49:37.707Z,99096.06
2023-02-24T18:52:07.290Z,99097.00
2023-02-24T18:54:35.123Z,99084.59
2023-02-24T18:57:02.609Z,99084.50
2023-02-24T18:59:29.947Z,99086.41
2023-02-24T19:01:57.298Z,99076.56
2023-02-24T19:04:25.437Z,99079.94
2023-02-24T19:06:52.705Z,99072.72
2023-02-24T19:09:24.091Z,99071.28
2023-02-24T19:11:52.483Z,99067.63
2023-02-24T19:14:19.836Z,99068.47
2023-02-24T19:16:47.198Z,99067.78
2023-02-24T19:19:16.105Z,99063.16
2023-02-24T19:21:45.851Z,99061.06
2023-02-24T19:24:14.058Z,99053.66
2023-02-24T19:26:43.755Z,99059.81
2023-02-24T19:29:11.910Z,99055.25
2023-02-24T19:31:41.023Z,99050.34
2023-02-24T19:34:11.391Z,99053.03
2023-02-24T19:36:39.025Z,99044.94
2023-02-24T19:39:09.280Z,99035.16
2023-02-24T19:41:36.911Z,99036.06
2023-02-24T19:44:04.231Z,99035.44
2023-02-24T19:46:34.305Z,99027.53
2023-02-24T19:49:02.418Z,99031.81
2023-02-24T19:51:30.122Z,99030.94
2023-02-24T19:53:59.286Z,99036.91
2023-02-24T19:56:33.325Z,99025.66
2023-02-24T19:59:02.075Z,99034.28
2023-02-24T20:01:30.198Z,99027.31
2023-02-24T20:04:00.505Z,99023.78
2023-02-24T20:06:37.078Z,99028.03
2023-02-24T20:09:15.363Z,99026.38
2023-02-24T20:11:43.873Z,99022.13
2023-02-24T20:14:12.905Z,99016.06
2023-02-24T20:16:42.497Z,99010.81
2023-02-24T20:19:11.551Z,99011.66
2023-02-24T20:21:39.479Z,99013.31
2023-02-24T20:24:11.503Z,99012.91
2023-02-24T20:26:41.966Z,99007.41
2023-02-24T20:29:09.592Z,99000.94
2023-02-24T20:31:38.704Z,99002.66
2023-02-24T20:34:08.521Z,98999.88
2023-02-24T20:36:36.304Z,98996.97
2023-02-24T20:39:06.630Z,98999.75
2023-02-24T20:41:34.642Z,98997.97
2023-02-24T20:44:01.897Z,99001.38
2023-02-24T20:46:31.743Z,98992.16
2023-02-24T20:49:02.126Z,98984.22
2023-02-24T20:51:30.242Z,98984.31
2023-02-24T20:53:58.644Z,98986.03
2023-02-24T20:56:33.103Z,98982.44
2023-02-24T20:59:06.044Z,98981.63
2023-02-24T21:01:34.083Z,98976.59
2023-02-24T21:04:01.666Z,98973.88
2023-02-24T21:06:29.788Z,98974.53
2023-02-24T21:08:57.893Z,98976.25
2023-02-24T21:11:25.660Z,98977.81
2023-02-24T21:13:53.201Z,98963.09
2023-02-24T21:16:21.681Z,98959.69
2023-02-24T21:18:50.608Z,98960.19
2023-02-24T21:21:19.759Z,98956.72
2023-02-24T21:23:47.846Z,98956.59
2023-02-24T21:26:15.506Z,98943.47
2023-02-24T21:28:42.840Z,98947.63
2023-02-24T21:31:12.226Z,98952.84
2023-02-24T21:33:39.773Z,98957.09
2023-02-24T21:36:09.861Z,98939.69
2023-02-24T21:38:37.821Z,98936.13
2023-02-24T21:41:07.510Z,98936.97
2023-02-24T21:43:35.384Z,98935.88
2023-02-24T21:46:05.521Z,98932.44
2023-02-24T21:48:33.760Z,98928.13
2023-02-24T21:51:06.433Z,98920.25
2023-02-24T21:53:35.578Z,98917.09
2023-02-24T21:56:04.309Z,98921.69
2023-02-24T21:58:32.551Z,98916.38
2023-02-24T22:00:59.792Z,98910.72
2023-02-24T22:03:28.072Z,98909.09
2023-02-24T22:05:55.484Z,98901.94
2023-02-24T22:08:22.702Z,98890.78
2023-02-24T22:11:00.522Z,98901.16
2023-02-24T22:13:28.300Z,98905.38
2023-02-24T22:15:58.216Z,98892.66
2023-02-24T22:18:25.481Z,98884.78
2023-02-24T22:20:52.771Z,98881.19
2023-02-24T22:23:20.172Z,98889.94
2023-02-24T22:25:47.550Z,98887.38
2023-02-24T22:28:14.800Z,98880.44
2023-02-24T22:30:42.051Z,98875.88
2023-02-24T22:33:09.333Z,98886.28
2023-02-24T22:35:36.651Z,98887.09
2023-02-24T22:38:04.216Z,98879.31
2023-02-24T22:40:31.457Z,98880.34
2023-02-24T22:42:58.660Z,98879.44
2023-02-24T22:45:25.910Z,98879.41
2023-02-24T22:47:53.147Z,98878.56
2023-02-24T22:50:20.486Z,98875.03
2023-02-24T22:52:49.006Z,98879.50
2023-02-24T22:55:18.173Z,98876.97
2023-02-24T22:57:45.529Z,98875.09
2023-02-24T23:00:20.185Z,98871.03
2023-02-24T23:02:47.929Z,98870.25
2023-02-24T23:05:15.254Z,98866.94
2023-02-24T23:07:42.519Z,98861.78
2023-02-24T23:10:10.676Z,98872.88
2023-02-24T23:12:37.927Z,98869.47
2023-02-24T23:15:05.940Z,98865.69
2023-02-24T23:17:33.139Z,98864.97
2023-02-24T23:20:00.676Z,98871.03
2023-02-24T23:22:27.917Z,98873.13
2023-02-24T23:24:55.187Z,98872.19
2023-02-24T23:27:23.674Z,98869.34
2023-02-24T23:29:50.935Z,98872.63
2023-02-24T23:32:18.254Z,98864.69
2023-02-24T23:34:45.871Z,98872.16
2023-02-24T23:37:23.343Z,98863.38
2023-02-24T23:39:50.585Z,98867.78
2023-02-24T23:42:19.589Z,98864.47
2023-02-24T23:44:49.397Z,98867.78
2023-02-24T23:47:16.840Z,98868.00
2023-02-24T23:49:48.395Z,98855.28
2023-02-24T23:52:15.986Z,98853.72
2023-02-24T23:54:43.770Z,98851.22
2023-02-24T23:57:11.415Z,98852.78
2023-02-24T23:59:39.307Z,98851.19
